createdAt,value
2023-02-27T00:00:48.888Z,63.93
2023-02-27T00:03:26.334Z,64.57
2023-02-27T00:05:56.523Z,64.87
2023-02-27T00:08:24.661Z,65.16
2023-02-27T00:10:53.195Z,65.34
2023-02-27T00:13:21.351Z,65.90
2023-02-27T00:15:52.274Z,66.39
2023-02-27T00:18:20.545Z,66.72
2023-02-27T00:20:48.538Z,66.93
2023-02-27T00:23:16.860Z,66.65
2023-02-27T00:25:45.032Z,66.62
2023-02-27T00:28:13.389Z,66.55
2023-02-27T00:30:41.488Z,66.13
2023-02-27T00:33:09.602Z,65.34
2023-02-27T00:35:37.728Z,66.38
2023-02-27T00:38:05.821Z,72.15
2023-02-27T00:40:35.971Z,73.91
2023-02-27T00:43:04.554Z,74.63
2023-02-27T00:45:32.520Z,74.97
2023-02-27T00:48:02.364Z,75.47
2023-02-27T00:50:30.287Z,75.69
2023-02-27T00:52:58.796Z,75.67
2023-02-27T00:55:27.474Z,75.83
2023-02-27T00:57:55.730Z,75.77
2023-02-27T01:00:23.994Z,75.62
2023-02-27T01:02:52.223Z,75.40
2023-02-27T01:05:20.879Z,75.58
2023-02-27T01:07:49.037Z,75.98
2023-02-27T01:10:17.634Z,76.08
2023-02-27T01:12:45.762Z,76.14
2023-02-27T01:15:14.199Z,76.35
2023-02-27T01:17:43.329Z,76.47
2023-02-27T01:20:13.025Z,76.41
2023-02-27T01:22:41.077Z,76.40
2023-02-27T01:25:10.324Z,76.19
2023-02-27T01:27:40.907Z,76.13
2023-02-27T01:30:11.574Z,75.94
2023-02-27T01:32:39.638Z,75.55
2023-02-27T01:35:08.390Z,75.65
2023-02-27T01:37:36.656Z,75.81
2023-02-27T01:40:07.319Z,75.70
2023-02-27T01:42:35.258Z,75.59
2023-02-27T01:45:12.646Z,75.45
2023-02-27T01:47:50.218Z,75.59
2023-02-27T01:50:19.530Z,75.40
2023-02-27T01:52:54.730Z,75.31
2023-02-27T01:55:26.266Z,75.19
2023-02-27T01:57:55.318Z,75.21
2023-02-27T02:00:23.695Z,75.03
2023-02-27T02:03:01.081Z,74.51
2023-02-27T02:05:30.705Z,74.41
2023-02-27T02:08:00.650Z,74.33
2023-02-27T02:10:30.308Z,73.66
2023-02-27T02:12:59.157Z,73.11
2023-02-27T02:15:35.443Z,73.26
2023-02-27T02:18:27.812Z,73.08
2023-02-27T02:21:28.649Z,73.03
2023-02-27T02:24:21.418Z,72.60
2023-02-27T02:26:49.574Z,72.58
2023-02-27T02:29:21.871Z,72.25
2023-02-27T02:32:02.601Z,72.06
2023-02-27T02:34:42.289Z,71.40
2023-02-27T02:37:28.198Z,71.32
2023-02-27T02:40:10.831Z,71.27
2023-02-27T02:42:49.116Z,71.04
2023-02-27T02:45:38.962Z,71.04
2023-02-27T02:48:16.764Z,71.10
2023-02-27T02:50:56.867Z,70.66
2023-02-27T02:53:45.094Z,70.74
2023-02-27T02:56:29.496Z,70.47
2023-02-27T02:59:06.475Z,70.69
2023-02-27T03:01:58.689Z,70.80
2023-02-27T03:04:34.190Z,71.07
2023-02-27T03:07:13.600Z,71.34
2023-02-27T03:09:50.964Z,71.26
2023-02-27T03:12:23.963Z,71.49
2023-02-27T03:15:13.048Z,71.85
2023-02-27T03:18:03.732Z,72.32
2023-02-27T03:20:38.181Z,72.73
2023-02-27T03:23:14.107Z,72.97
2023-02-27T03:25:46.393Z,73.25
2023-02-27T03:28:21.101Z,73.09
2023-02-27T03:31:06.950Z,73.61
2023-02-27T03:33:45.879Z,73.82
2023-02-27T03:36:28.836Z,74.09
2023-02-27T03:39:07.505Z,74.57
2023-02-27T03:42:07.370Z,74.84
2023-02-27T03:45:28.633Z,74.61
2023-02-27T03:47:57.339Z,74.40
2023-02-27T03:50:25.986Z,74.58
2023-02-27T03:52:54.788Z,74.61
2023-02-27T03:55:32.759Z,74.49
2023-02-27T03:58:01.544Z,74.25
2023-02-27T04:00:29.600Z,74.52
2023-02-27T04:03:00.097Z,74.61
2023-02-27T04:05:29.627Z,74.40
2023-02-27T04:08:14.140Z,74.10
2023-02-27T04:11:12.490Z,73.95
2023-02-27T04:13:46.483Z,74.18
2023-02-27T04:16:33.131Z,73.96
2023-02-27T04:19:13.274Z,73.15
2023-02-27T04:21:53.791Z,73.01
2023-02-27T04:24:44.126Z,72.79
2023-02-27T04:27:46.910Z,72.93
2023-02-27T04:30:26.026Z,73.28
2023-02-27T04:33:29.284Z,73.37
2023-02-27T04:36:05.846Z,72.93
2023-02-27T04:38:37.876Z,72.89
2023-02-27T04:41:43.497Z,73.00
2023-02-27T04:44:14.650Z,72.51
2023-02-27T04:46:45.849Z,72.71
2023-02-27T04:49:23.704Z,72.72
2023-02-27T04:51:51.976Z,72.85
2023-02-27T04:54:30.288Z,72.90
2023-02-27T04:57:02.821Z,72.73
2023-02-27T04:59:37.623Z,72.86
2023-02-27T05:02:11.037Z,72.85
2023-02-27T05:04:41.790Z,72.64
2023-02-27T05:07:14.892Z,73.19
2023-02-27T05:10:01.034Z,73.33
2023-02-27T05:12:36.359Z,73.59
2023-02-27T05:15:19.718Z,73.96
2023-02-27T05:18:00.592Z,74.21
2023-02-27T05:20:35.676Z,74.57
2023-02-27T05:23:32.087Z,74.88
2023-02-27T05:26:19.884Z,74.88
2023-02-27T05:29:01.040Z,75.08
2023-02-27T05:31:47.087Z,74.98
2023-02-27T05:34:26.978Z,75.68
2023-02-27T05:37:04.750Z,75.98
2023-02-27T05:39:36.426Z,76.26
2023-02-27T05:42:11.972Z,76.61
2023-02-27T05:44:45.322Z,76.83
2023-02-27T05:47:20.421Z,77.05
2023-02-27T05:50:11.940Z,77.14
2023-02-27T05:52:41.565Z,77.18
2023-02-27T05:55:24.598Z,77.19
2023-02-27T05:57:59.414Z,77.13
2023-02-27T06:00:37.858Z,77.37
2023-02-27T06:03:06.452Z,77.28
2023-02-27T06:05:37.981Z,77.14
2023-02-27T06:08:06.020Z,76.99
2023-02-27T06:10:34.444Z,77.14
2023-02-27T06:13:02.456Z,76.97
2023-02-27T06:15:30.657Z,76.80
2023-02-27T06:17:58.953Z,76.74
2023-02-27T06:20:27.524Z,76.66
2023-02-27T06:22:55.507Z,76.74
2023-02-27T06:25:24.029Z,76.76
2023-02-27T06:27:52.161Z,76.16
2023-02-27T06:30:21.113Z,75.90
2023-02-27T06:32:56.538Z,75.79
2023-02-27T06:35:24.716Z,75.74
2023-02-27T06:37:52.694Z,75.59
2023-02-27T06:40:20.860Z,75.64
2023-02-27T06:42:49.648Z,75.66
2023-02-27T06:45:19.652Z,75.03
2023-02-27T06:47:48.571Z,74.85
2023-02-27T06:50:16.637Z,74.75
2023-02-27T06:52:44.689Z,74.36
2023-02-27T06:55:12.751Z,74.15
2023-02-27T06:57:40.991Z,73.76
2023-02-27T07:00:11.840Z,73.48
2023-02-27T07:02:39.972Z,73.58
2023-02-27T07:05:08.743Z,73.74
2023-02-27T07:07:38.223Z,73.90
2023-02-27T07:10:13.234Z,73.98
2023-02-27T07:12:41.945Z,74.26
2023-02-27T07:15:10.480Z,73.94
2023-02-27T07:17:38.502Z,73.90
2023-02-27T07:20:08.923Z,73.61
2023-02-27T07:22:38.956Z,73.68
2023-02-27T07:25:08.094Z,74.52
2023-02-27T07:27:36.129Z,74.38
2023-02-27T07:30:04.691Z,73.73
2023-02-27T07:32:32.610Z,72.43
2023-02-27T07:35:00.709Z,71.91
2023-02-27T07:37:28.708Z,71.61
2023-02-27T07:39:56.862Z,71.01
2023-02-27T07:42:25.113Z,70.22
2023-02-27T07:44:53.096Z,70.23
2023-02-27T07:47:21.316Z,70.33
2023-02-27T07:49:49.306Z,69.95
2023-02-27T07:52:17.188Z,69.68
2023-02-27T07:54:45.507Z,69.56
2023-02-27T07:57:13.822Z,69.60
2023-02-27T07:59:41.915Z,69.75
2023-02-27T08:02:12.407Z,70.02
2023-02-27T08:04:40.625Z,70.41
2023-02-27T08:07:08.526Z,70.63
2023-02-27T08:09:36.637Z,71.23
2023-02-27T08:12:05.126Z,71.33
2023-02-27T08:14:32.999Z,71.54
2023-02-27T08:17:01.292Z,71.61
2023-02-27T08:19:29.293Z,71.72
2023-02-27T08:21:57.440Z,71.50
2023-02-27T08:24:25.651Z,71.13
2023-02-27T08:26:53.655Z,70.89
2023-02-27T08:29:21.609Z,71.09
2023-02-27T08:31:49.929Z,71.42
2023-02-27T08:34:18.028Z,71.74
2023-02-27T08:36:46.591Z,71.84
2023-02-27T08:39:14.597Z,72.17
2023-02-27T08:41:42.900Z,72.27
2023-02-27T08:44:13.695Z,72.89
2023-02-27T08:46:41.660Z,73.15
2023-02-27T08:49:09.663Z,73.23
2023-02-27T08:51:38.118Z,73.15
2023-02-27T08:54:06.346Z,72.62
2023-02-27T08:56:34.979Z,72.80
2023-02-27T08:59:03.027Z,72.50
2023-02-27T09:01:34.603Z,72.95
2023-02-27T09:04:04.928Z,73.31
2023-02-27T09:06:35.667Z,73.10
2023-02-27T09:09:05.300Z,73.61
2023-02-27T09:11:33.702Z,73.90
2023-02-27T09:14:01.651Z,73.94
2023-02-27T09:16:30.288Z,74.30
2023-02-27T09:18:58.887Z,74.26
2023-02-27T09:21:27.477Z,73.94
2023-02-27T09:24:02.639Z,73.35
2023-02-27T09:26:45.061Z,73.14
2023-02-27T09:29:14.148Z,73.16
2023-02-27T09:31:42.552Z,72.99
2023-02-27T09:34:10.575Z,73.21
2023-02-27T09:36:39.265Z,72.88
2023-02-27T09:39:09.359Z,72.77
2023-02-27T09:41:50.926Z,73.51
2023-02-27T09:44:39.819Z,72.97
2023-02-27T09:47:17.107Z,72.43
2023-02-27T09:49:58.009Z,72.63
2023-02-27T09:52:26.432Z,72.85
2023-02-27T09:54:55.201Z,72.81
2023-02-27T09:57:49.779Z,73.00
2023-02-27T10:00:32.632Z,73.21
2023-02-27T10:03:24.040Z,72.98
2023-02-27T10:06:29.683Z,72.44
2023-02-27T10:09:18.506Z,72.41
2023-02-27T10:12:26.834Z,72.27
2023-02-27T10:15:03.355Z,72.71
2023-02-27T10:17:36.331Z,72.59
2023-02-27T10:20:18.090Z,72.68
2023-02-27T10:22:47.345Z,72.39
2023-02-27T10:25:30.734Z,72.31
2023-02-27T10:28:12.234Z,72.71
2023-02-27T10:30:42.974Z,72.74
2023-02-27T10:33:22.729Z,73.18
2023-02-27T10:35:53.926Z,73.52
2023-02-27T10:38:26.993Z,73.33
2023-02-27T10:40:58.800Z,73.60
2023-02-27T10:43:26.869Z,73.64
2023-02-27T10:45:55.058Z,73.19
2023-02-27T10:48:23.775Z,72.81
2023-02-27T10:50:52.324Z,72.66
2023-02-27T10:53:26.075Z,73.35
2023-02-27T10:56:23.139Z,73.49
2023-02-27T10:59:04.504Z,73.59
2023-02-27T11:01:49.196Z,73.61
2023-02-27T11:04:26.926Z,73.71
2023-02-27T11:06:56.307Z,73.36
2023-02-27T11:09:25.729Z,72.44
2023-02-27T11:11:54.939Z,72.63
2023-02-27T11:14:31.068Z,72.85
2023-02-27T11:17:03.239Z,73.26
2023-02-27T11:19:38.970Z,73.40
2023-02-27T11:22:08.693Z,73.40
2023-02-27T11:24:36.824Z,73.32
2023-02-27T11:27:20.884Z,73.39
2023-02-27T11:30:32.123Z,73.18
2023-02-27T11:33:01.561Z,72.59
2023-02-27T11:35:36.772Z,72.82
2023-02-27T11:38:09.035Z,73.20
2023-02-27T11:40:50.322Z,73.07
2023-02-27T11:43:22.150Z,72.82
2023-02-27T11:46:14.465Z,72.64
2023-02-27T11:49:22.496Z,72.82
2023-02-27T11:52:03.471Z,73.19
2023-02-27T11:54:35.061Z,72.54
2023-02-27T11:57:30.270Z,72.71
2023-02-27T12:00:06.535Z,72.57
2023-02-27T12:03:16.392Z,72.77
2023-02-27T12:05:51.200Z,72.37
2023-02-27T12:08:43.649Z,71.90
2023-02-27T12:11:28.370Z,71.78
2023-02-27T12:14:21.289Z,71.72
2023-02-27T12:17:07.192Z,71.69
2023-02-27T12:20:20.632Z,71.14
2023-02-27T12:22:52.895Z,71.14
2023-02-27T12:25:31.975Z,70.15
2023-02-27T12:28:03.885Z,69.22
2023-02-27T12:30:40.139Z,68.49
2023-02-27T12:33:42.088Z,68.68
2023-02-27T12:36:12.210Z,68.86
2023-02-27T12:38:40.297Z,68.57
2023-02-27T12:41:39.174Z,68.36
2023-02-27T12:44:25.978Z,68.29
2023-02-27T12:46:56.815Z,67.89
2023-02-27T12:49:43.013Z,68.21
2023-02-27T12:52:28.428Z,68.54
2023-02-27T12:55:11.010Z,68.51
2023-02-27T12:58:05.519Z,67.90
2023-02-27T13:00:47.834Z,67.22
2023-02-27T13:03:20.937Z,67.01
2023-02-27T13:06:03.127Z,68.61
2023-02-27T13:08:31.040Z,68.30
2023-02-27T13:11:04.888Z,67.67
2023-02-27T13:13:40.623Z,66.98
2023-02-27T13:16:17.736Z,66.80
2023-02-27T13:19:05.028Z,66.93
2023-02-27T13:21:49.756Z,67.48
2023-02-27T13:24:24.231Z,67.32
2023-02-27T13:26:58.133Z,67.06
2023-02-27T13:29:35.341Z,67.21
2023-02-27T13:32:44.438Z,67.50
2023-02-27T13:35:41.804Z,67.46
2023-02-27T13:38:34.868Z,67.93
2023-02-27T13:41:38.507Z,67.55
2023-02-27T13:44:39.977Z,67.55
2023-02-27T13:47:29.799Z,67.47
2023-02-27T13:50:00.253Z,67.78
2023-02-27T13:52:29.609Z,67.83
2023-02-27T13:55:06.255Z,67.92
2023-02-27T13:57:39.686Z,67.83
2023-02-27T14:00:21.732Z,67.81
2023-02-27T14:03:21.010Z,67.41
2023-02-27T14:05:52.994Z,67.82
2023-02-27T14:08:26.873Z,67.62
2023-02-27T14:11:03.060Z,67.72
2023-02-27T14:13:54.697Z,67.45
2023-02-27T14:16:48.516Z,67.31
2023-02-27T14:19:17.219Z,67.68
2023-02-27T14:22:03.471Z,67.56
2023-02-27T14:25:01.121Z,67.54
2023-02-27T14:27:36.875Z,67.46
2023-02-27T14:30:08.037Z,67.32
2023-02-27T14:32:37.951Z,67.40
2023-02-27T14:35:06.543Z,67.45
2023-02-27T14:37:36.451Z,67.52
2023-02-27T14:40:06.408Z,67.76
2023-02-27T14:43:07.084Z,67.81
2023-02-27T14:45:35.078Z,67.90
2023-02-27T14:48:03.376Z,67.36
2023-02-27T14:50:36.653Z,67.11
2023-02-27T14:53:06.528Z,66.90
2023-02-27T14:55:38.413Z,67.04
2023-02-27T14:58:18.292Z,67.19
2023-02-27T15:00:50.746Z,67.20
2023-02-27T15:03:26.411Z,67.30
2023-02-27T15:05:59.386Z,67.77
2023-02-27T15:08:36.676Z,68.02
2023-02-27T15:11:06.434Z,67.93
2023-02-27T15:13:40.167Z,68.11
2023-02-27T15:16:23.646Z,67.77
2023-02-27T15:19:00.668Z,67.28
2023-02-27T15:21:32.939Z,67.50
2023-02-27T15:24:04.246Z,67.65
2023-02-27T15:26:38.471Z,67.80
2023-02-27T15:29:08.434Z,72.43
2023-02-27T15:31:36.422Z,75.69
2023-02-27T15:34:04.766Z,71.49
2023-02-27T15:36:35.595Z,69.74
2023-02-27T15:39:06.260Z,69.20
2023-02-27T15:41:34.486Z,67.96
2023-02-27T15:44:03.674Z,67.75
2023-02-27T15:46:33.172Z,67.73
2023-02-27T15:49:01.232Z,66.93
2023-02-27T15:51:30.218Z,66.90
2023-02-27T15:54:00.367Z,66.93
2023-02-27T15:56:34.763Z,66.83
2023-02-27T15:59:04.334Z,66.83
2023-02-27T16:01:34.943Z,66.87
2023-02-27T16:04:06.579Z,67.20
2023-02-27T16:06:38.996Z,67.46
2023-02-27T16:09:16.679Z,67.49
2023-02-27T16:11:44.954Z,67.20
2023-02-27T16:14:37.747Z,66.99
2023-02-27T16:17:29.918Z,67.06
2023-02-27T16:20:02.291Z,66.98
2023-02-27T16:22:30.913Z,68.94
2023-02-27T16:25:10.850Z,68.34
2023-02-27T16:27:39.579Z,67.14
2023-02-27T16:30:11.998Z,67.12
2023-02-27T16:32:45.990Z,67.30
2023-02-27T16:35:24.024Z,67.55
2023-02-27T16:37:53.561Z,67.60
2023-02-27T16:40:24.941Z,67.96
2023-02-27T16:42:53.409Z,68.14
2023-02-27T16:45:25.219Z,68.37
2023-02-27T16:47:57.236Z,68.73
2023-02-27T16:50:32.432Z,68.85
2023-02-27T16:53:00.837Z,69.01
2023-02-27T16:55:28.970Z,68.84
2023-02-27T16:57:57.119Z,68.91
2023-02-27T17:00:25.014Z,68.86
2023-02-27T17:02:53.024Z,69.08
2023-02-27T17:05:22.744Z,68.26
2023-02-27T17:07:50.641Z,67.86
2023-02-27T17:10:22.463Z,68.01
2023-02-27T17:12:50.484Z,68.29
2023-02-27T17:15:19.299Z,68.30
2023-02-27T17:17:47.421Z,68.39
2023-02-27T17:20:16.193Z,68.27
2023-02-27T17:22:45.259Z,68.14
2023-02-27T17:25:13.902Z,68.22
2023-02-27T17:27:43.797Z,68.39
2023-02-27T17:30:13.353Z,68.60
2023-02-27T17:32:41.318Z,68.96
2023-02-27T17:35:10.139Z,68.92
2023-02-27T17:37:38.198Z,69.02
2023-02-27T17:40:08.420Z,68.94
2023-02-27T17:42:37.067Z,68.89
2023-02-27T17:45:07.538Z,68.84
2023-02-27T17:47:35.999Z,68.47
2023-02-27T17:50:05.081Z,68.09
2023-02-27T17:52:37.218Z,68.22
2023-02-27T17:55:06.782Z,68.25
2023-02-27T17:57:36.566Z,68.46
2023-02-27T18:00:06.350Z,68.59
2023-02-27T18:02:34.516Z,68.76
2023-02-27T18:05:04.691Z,68.77
2023-02-27T18:07:34.690Z,69.02
2023-02-27T18:10:05.455Z,69.05
2023-02-27T18:12:34.486Z,69.32
2023-02-27T18:15:03.387Z,69.41
2023-02-27T18:17:33.293Z,69.34
2023-02-27T18:20:01.287Z,69.16
2023-02-27T18:22:30.019Z,69.06
2023-02-27T18:24:58.816Z,69.02
2023-02-27T18:27:28.277Z,69.14
2023-02-27T18:29:57.677Z,69.28
2023-02-27T18:32:25.595Z,69.38
2023-02-27T18:34:54.076Z,69.27
2023-02-27T18:37:21.929Z,70.36
2023-02-27T18:39:50.504Z,71.72
2023-02-27T18:42:18.407Z,70.33
2023-02-27T18:44:47.713Z,69.94
2023-02-27T18:47:15.738Z,69.72
2023-02-27T18:49:44.036Z,69.58
2023-02-27T18:52:12.080Z,69.30
2023-02-27T18:54:42.387Z,69.32
2023-02-27T18:57:10.704Z,69.36
2023-02-27T18:59:41.283Z,69.66
2023-02-27T19:02:17.453Z,69.81
2023-02-27T19:04:47.373Z,70.11
2023-02-27T19:07:16.827Z,70.28
2023-02-27T19:09:45.175Z,69.94
2023-02-27T19:12:13.351Z,69.70
2023-02-27T19:14:41.391Z,69.73
2023-02-27T19:17:09.800Z,69.84
2023-02-27T19:19:37.860Z,69.75
2023-02-27T19:22:06.164Z,69.73
2023-02-27T19:24:34.711Z,69.86
2023-02-27T19:27:03.089Z,69.98
2023-02-27T19:29:31.170Z,70.01
2023-02-27T19:31:59.351Z,70.14
2023-02-27T19:34:27.404Z,70.18
2023-02-27T19:36:55.633Z,70.06
2023-02-27T19:39:23.578Z,69.91
2023-02-27T19:41:51.635Z,70.01
2023-02-27T19:44:19.837Z,70.08
2023-02-27T19:46:51.746Z,70.22
2023-02-27T19:49:20.453Z,70.36
2023-02-27T19:51:48.413Z,70.49
2023-02-27T19:54:16.695Z,70.74
2023-02-27T19:56:44.797Z,70.76
2023-02-27T19:59:13.293Z,70.82
2023-02-27T20:01:41.848Z,70.99
2023-02-27T20:04:11.104Z,70.99
2023-02-27T20:06:42.968Z,70.70
2023-02-27T20:09:14.541Z,70.80
2023-02-27T20:11:44.012Z,70.70
2023-02-27T20:14:13.986Z,70.75
2023-02-27T20:16:42.646Z,71.12
2023-02-27T20:19:14.389Z,71.19
2023-02-27T20:21:42.562Z,71.17
2023-02-27T20:24:11.824Z,71.24
2023-02-27T20:26:43.313Z,71.20
2023-02-27T20:29:23.124Z,71.07
2023-02-27T20:31:53.310Z,71.01
2023-02-27T20:34:26.585Z,70.92
2023-02-27T20:36:55.471Z,71.11
2023-02-27T20:39:24.616Z,71.14
2023-02-27T20:41:52.679Z,71.21
2023-02-27T20:44:20.547Z,71.45
2023-02-27T20:46:49.573Z,71.39
2023-02-27T20:49:18.507Z,71.29
2023-02-27T20:51:46.656Z,71.35
2023-02-27T20:54:20.173Z,71.38
2023-02-27T20:56:52.505Z,71.48
2023-02-27T20:59:23.739Z,71.48
2023-02-27T21:01:54.402Z,71.41
2023-02-27T21:04:43.170Z,71.51
2023-02-27T21:07:21.633Z,71.19
2023-02-27T21:09:50.886Z,71.10
2023-02-27T21:12:19.101Z,71.01
2023-02-27T21:14:49.655Z,71.19
2023-02-27T21:17:17.813Z,71.52
2023-02-27T21:19:45.796Z,71.74
2023-02-27T21:22:14.393Z,71.92
2023-02-27T21:24:42.382Z,71.92
2023-02-27T21:27:10.791Z,72.04
2023-02-27T21:29:38.924Z,72.09
2023-02-27T21:32:07.811Z,71.91
2023-02-27T21:34:36.282Z,71.90
2023-02-27T21:37:07.409Z,71.84
2023-02-27T21:39:35.784Z,71.67
2023-02-27T21:42:04.046Z,71.81
2023-02-27T21:44:32.073Z,72.06
2023-02-27T21:47:08.472Z,72.19
2023-02-27T21:49:37.196Z,72.19
2023-02-27T21:52:05.871Z,72.26
2023-02-27T21:54:33.798Z,72.39
2023-02-27T21:57:03.511Z,72.37
2023-02-27T21:59:31.403Z,72.53
2023-02-27T22:01:59.508Z,72.37
2023-02-27T22:04:27.739Z,72.03
2023-02-27T22:06:55.768Z,71.97
2023-02-27T22:09:23.708Z,72.03
2023-02-27T22:11:51.847Z,72.28
2023-02-27T22:14:19.841Z,72.35
2023-02-27T22:16:47.809Z,72.47
2023-02-27T22:19:20.962Z,72.54
2023-02-27T22:21:49.664Z,72.71
2023-02-27T22:24:18.343Z,72.67
2023-02-27T22:26:47.930Z,72.81
2023-02-27T22:29:17.129Z,72.85
2023-02-27T22:31:45.223Z,73.09
2023-02-27T22:34:18.644Z,73.04
2023-02-27T22:36:48.944Z,73.17
2023-02-27T22:39:16.892Z,73.07
2023-02-27T22:41:46.139Z,72.99
2023-02-27T22:44:16.020Z,73.15
2023-02-27T22:46:47.462Z,73.07
2023-02-27T22:49:23.621Z,73.18
2023-02-27T22:51:52.675Z,73.23
2023-02-27T22:54:22.851Z,73.32
2023-02-27T22:56:52.696Z,73.51
2023-02-27T22:59:20.973Z,73.61
2023-02-27T23:01:50.482Z,73.91
2023-02-27T23:04:18.803Z,74.19
2023-02-27T23:06:46.783Z,74.33
2023-02-27T23:09:20.667Z,74.41
2023-02-27T23:11:48.829Z,74.57
2023-02-27T23:14:17.523Z,74.52
2023-02-27T23:16:46.606Z,74.52
2023-02-27T23:19:17.815Z,74.59
2023-02-27T23:21:45.743Z,74.48
2023-02-27T23:24:17.191Z,74.52
2023-02-27T23:26:48.030Z,74.73
2023-02-27T23:29:16.782Z,74.65
2023-02-27T23:31:44.769Z,74.52
2023-02-27T23:34:13.149Z,74.51
2023-02-27T23:36:41.129Z,74.65
2023-02-27T23:39:09.521Z,74.49
2023-02-27T23:41:37.506Z,74.46
2023-02-27T23:44:05.415Z,74.51
2023-02-27T23:46:33.370Z,74.38
2023-02-27T23:49:01.902Z,74.27
2023-02-27T23:51:30.746Z,74.34
2023-02-27T23:53:59.992Z,74.52
2023-02-27T23:56:30.654Z,74.42
2023-02-27T23:59:01.843Z,74.45
